Time,TemperatureF,DewpointF,PressureIn,WindDirection,WindDirectionDegrees,WindSpeedMPH,WindSpeedGustMPH,Humidity,HourlyPrecipIn,Conditions,Clouds,dailyrainin,SoftwareType,DateUTC
2013-02-16 00:00:00,26.3,16.5,30.06,West,273,0.0,0.0,66,0.00,,,0.02,WeatherDisplay:10.37,2013-02-16 05:00:00,
2013-02-16 00:01:00,26.3,16.5,30.06,North,355,1.0,1.0,66,0.00,RA,,0.00,WeatherDisplay:10.37,2013-02-16 05:01:00,
2013-02-16 00:03:00,26.3,16.5,30.06,West,273,3.0,3.0,66,0.00,RA,,0.00,WeatherDisplay:10.37,2013-02-16 05:03:00,
2013-02-16 00:08:00,26.3,16.8,30.06,NW,317,3.5,3.5,67,0.00,RA,,0.00,WeatherDisplay:10.37,2013-02-16 05:08:00,
2013-02-16 00:13:00,26.1,17.0,30.06,West,280,1.1,1.1,68,0.00,,,0.00,WeatherDisplay:10.37,2013-02-16 05:13:00,
2013-02-16 00:18:00,25.9,17.1,30.06,WSW,255,1.0,1.0,69,0.00,,,0.00,WeatherDisplay:10.37,2013-02-16 05:18:00,
2013-02-16 00:23:00,25.7,16.9,30.06,WNW,302,0.0,0.5,69,0.00,,,0.00,WeatherDisplay:10.37,2013-02-16 05:23:00,
2013-02-16 00:28:00,25.5,17.1,30.06,WNW,294,1.1,0.0,70,0.00,,,0.00,WeatherDisplay:10.37,2013-02-16 05:28:00,
2013-02-16 00:33:00,25.5,17.4,30.06,West,271,3.5,3.5,71,0.00,,,0.00,WeatherDisplay:10.37,2013-02-16 05:33:00,
2013-02-16 00:38:00,25.5,17.4,30.06,WNW,288,2.3,2.3,71,0.00,,,0.00,WeatherDisplay:10.37,2013-02-16 05:38:00,
2013-02-16 00:43:00,25.4,17.3,30.06,West,262,3.5,3.5,71,0.00,,,0.00,WeatherDisplay:10.37,2013-02-16 05:43:00,
2013-02-16 00:48:00,25.4,17.3,30.06,SW,224,3.5,3.5,71,0.00,,,0.00,WeatherDisplay:10.37,2013-02-16 05:48:00,
2013-02-16 00:53:00,25.3,17.5,30.06,WSW,257,1.1,1.1,72,0.00,,,0.00,WeatherDisplay:10.37,2013-02-16 05:53:00,
2013-02-16 00:58:00,25.1,17.3,30.06,WNW,282,2.3,2.3,72,0.00,,,0.00,WeatherDisplay:10.37,2013-02-16 05:58:00,
2013-02-16 01:03:00,25.0,17.2,30.06,WNW,299,1.1,1.1,72,0.00,,,0.00,WeatherDisplay:10.37,2013-02-16 06:03:00,
2013-02-16 01:08:00,24.9,17.5,30.06,WNW,283,1.1,0.0,73,0.00,,,0.00,WeatherDisplay:10.37,2013-02-16 06:08:00,
2013-02-16 01:13:00,24.8,17.4,30.06,NNW,338,2.3,2.3,73,0.00,,,0.00,WeatherDisplay:10.37,2013-02-16 06:13:00,
2013-02-16 01:18:00,24.7,17.3,30.06,WSW,245,2.3,2.3,73,0.00,,,0.00,WeatherDisplay:10.37,2013-02-16 06:18:00,
2013-02-16 01:23:00,24.5,17.4,30.06,NNW,333,1.0,0.0,74,0.00,,,0.00,WeatherDisplay:10.37,2013-02-16 06:23:00,
2013-02-16 01:28:00,24.4,17.3,30.06,SW,225,0.0,0.0,74,0.00,,,0.00,WeatherDisplay:10.37,2013-02-16 06:28:00,
2013-02-16 01:33:00,24.3,17.5,30.06,WSW,248,2.3,2.3,75,0.00,,,0.00,WeatherDisplay:10.37,2013-02-16 06:33:00,
2013-02-16 01:38:00,24.1,17.3,30.06,NNW,335,1.1,1.1,75,0.00,,,0.00,WeatherDisplay:10.37,2013-02-16 06:38:00,
2013-02-16 01:43:00,24.0,17.2,30.06,West,268,2.3,2.3,75,0.00,,,0.00,WeatherDisplay:10.37,2013-02-16 06:43:00,
2013-02-16 01:48:00,23.9,17.1,30.06,WNW,292,3.5,3.5,75,0.00,,,0.00,WeatherDisplay:10.37,2013-02-16 06:48:00,
2013-02-16 01:53:00,23.7,17.2,30.06,West,270,0.0,0.0,76,0.00,,,0.00,WeatherDisplay:10.37,2013-02-16 06:53:00,
2013-02-16 01:58:00,23.3,16.9,30.06,WNW,288,0.0,0.2,76,0.00,,,0.00,WeatherDisplay:10.37,2013-02-16 06:58:00,
2013-02-16 02:03:00,23.0,16.9,30.06,WNW,288,0.0,0.0,77,0.00,,,0.00,WeatherDisplay:10.37,2013-02-16 07:03:00,
2013-02-16 02:08:00,22.9,17.1,30.06,WSW,239,0.0,0.0,78,0.00,,,0.00,WeatherDisplay:10.37,2013-02-16 07:08:00,
2013-02-16 02:13:00,23.0,17.2,30.06,West,266,2.3,2.3,78,0.00,,,0.00,WeatherDisplay:10.37,2013-02-16 07:13:00,
2013-02-16 02:18:00,23.0,17.2,30.06,West,275,1.1,1.1,78,0.00,,,0.00,WeatherDisplay:10.37,2013-02-16 07:18:00,
2013-02-16 02:23:00,23.0,17.5,30.06,WNW,289,0.0,0.0,79,0.00,,,0.00,WeatherDisplay:10.37,2013-02-16 07:23:00,
2013-02-16 02:28:00,23.0,17.5,30.06,West,264,0.0,0.1,79,0.00,,,0.00,WeatherDisplay:10.37,2013-02-16 07:28:00,
2013-02-16 02:33:00,23.0,17.5,30.06,West,267,0.0,0.0,79,0.00,,,0.00,WeatherDisplay:10.37,2013-02-16 07:33:00,
2013-02-16 02:38:00,23.2,17.7,30.06,West,267,0.0,0.0,79,0.00,,,0.00,WeatherDisplay:10.37,2013-02-16 07:38:00,
2013-02-16 02:43:00,23.3,18.0,30.06,West,267,0.0,0.0,80,0.00,,,0.00,WeatherDisplay:10.37,2013-02-16 07:43:00,
2013-02-16 02:48:00,23.4,18.1,30.06,West,267,0.0,0.0,80,0.00,,,0.00,WeatherDisplay:10.37,2013-02-16 07:48:00,
2013-02-16 02:53:00,23.3,18.0,30.06,West,267,0.0,0.0,80,0.00,,,0.00,WeatherDisplay:10.37,2013-02-16 07:53:00,
2013-02-16 02:58:00,23.1,17.8,30.06,West,267,0.0,0.0,80,0.00,,,0.00,WeatherDisplay:10.37,2013-02-16 07:58:00,
2013-02-16 03:03:00,23.1,18.1,30.06,West,267,0.0,0.0,81,0.00,,,0.00,WeatherDisplay:10.37,2013-02-16 08:03:00,
2013-02-16 03:08:00,23.0,17.7,30.06,West,267,0.0,0.0,80,0.00,,,0.00,WeatherDisplay:10.37,2013-02-16 08:08:00,
2013-02-16 03:13:00,22.9,17.9,30.06,West,266,0.0,0.0,81,0.00,,,0.00,WeatherDisplay:10.37,2013-02-16 08:13:00,
2013-02-16 03:18:00,22.9,17.7,30.06,SSW,205,0.0,0.0,80,0.00,,,0.00,WeatherDisplay:10.37,2013-02-16 08:18:00,
2013-02-16 03:23:00,22.8,17.6,30.06,SSW,207,0.0,0.0,80,0.00,,,0.00,WeatherDisplay:10.37,2013-02-16 08:23:00,
2013-02-16 03:28:00,22.8,17.8,30.06,SSW,206,0.0,0.0,81,0.00,,,0.00,WeatherDisplay:10.37,2013-02-16 08:28:00,
2013-02-16 03:33:00,22.8,17.6,30.06,WSW,255,0.0,0.0,80,0.00,,,0.00,WeatherDisplay:10.37,2013-02-16 08:33:00,
2013-02-16 03:38:00,22.8,17.6,30.06,West,275,1.1,0.0,80,0.00,,,0.00,WeatherDisplay:10.37,2013-02-16 08:38:00,
2013-02-16 03:43:00,22.9,17.7,30.06,WSW,249,0.0,0.0,80,0.00,,,0.00,WeatherDisplay:10.37,2013-02-16 08:43:00,
2013-02-16 03:48:00,22.9,17.9,30.06,ESE,121,0.0,0.0,81,0.00,,,0.00,WeatherDisplay:10.37,2013-02-16 08:48:00,
2013-02-16 03:53:00,22.9,17.9,30.06,SE,129,0.0,0.0,81,0.00,,,0.00,WeatherDisplay:10.37,2013-02-16 08:53:00,
2013-02-16 03:58:00,22.9,17.9,30.06,SE,129,0.0,0.0,81,0.00,,,0.00,WeatherDisplay:10.37,2013-02-16 08:58:00,
2013-02-16 04:03:00,22.9,17.9,30.06,SE,135,0.0,0.0,81,0.00,,,0.00,WeatherDisplay:10.37,2013-02-16 09:03:00,
2013-02-16 04:08:00,22.9,18.2,30.06,SE,135,0.0,0.0,82,0.00,,,0.00,WeatherDisplay:10.37,2013-02-16 09:08:00,
2013-02-16 04:13:00,23.0,18.3,30.06,WSW,240,0.0,0.0,82,0.00,,,0.00,WeatherDisplay:10.37,2013-02-16 09:13:00,
2013-02-16 04:18:00,22.9,17.9,30.05,WNW,290,1.1,0.0,81,0.00,,,0.00,WeatherDisplay:10.37,2013-02-16 09:18:00,
2013-02-16 04:23:00,23.0,18.0,30.05,WNW,293,1.1,1.1,81,0.00,,,0.00,WeatherDisplay:10.37,2013-02-16 09:23:00,
2013-02-16 04:28:00,23.1,18.4,30.05,NNE,12,1.1,1.1,82,0.00,,,0.00,WeatherDisplay:10.37,2013-02-16 09:28:00,
2013-02-16 04:33:00,23.2,18.5,30.06,West,276,3.5,3.5,82,0.00,,,0.00,WeatherDisplay:10.37,2013-02-16 09:33:00,
2013-02-16 04:38:00,22.9,19.1,30.06,WNW,290,3.5,3.5,85,0.00,,,0.00,WeatherDisplay:10.37,2013-02-16 09:38:00,
2013-02-16 04:43:00,22.7,19.4,30.06,WSW,257,1.1,0.0,87,0.00,,,0.00,WeatherDisplay:10.37,2013-02-16 09:43:00,
2013-02-16 04:48:00,22.6,19.6,30.06,WNW,299,2.3,2.3,88,0.00,,,0.00,WeatherDisplay:10.37,2013-02-16 09:48:00,
2013-02-16 04:53:00,22.5,19.5,30.06,NNW,335,3.5,3.5,88,0.00,,,0.00,WeatherDisplay:10.37,2013-02-16 09:53:00,
2013-02-16 04:58:00,22.5,19.7,30.05,NNE,23,1.1,0.0,89,0.00,,,0.00,WeatherDisplay:10.37,2013-02-16 09:58:00,
2013-02-16 05:03:00,22.5,19.7,30.05,West,271,1.1,1.1,89,0.00,,,0.00,WeatherDisplay:10.37,2013-02-16 10:03:00,
2013-02-16 05:08:00,22.5,19.7,30.05,WNW,290,0.0,0.0,89,0.00,,,0.00,WeatherDisplay:10.37,2013-02-16 10:08:00,
2013-02-16 05:13:00,22.5,19.7,30.06,WNW,289,0.0,0.0,89,0.00,,,0.00,WeatherDisplay:10.37,2013-02-16 10:13:00,
2013-02-16 05:18:00,22.5,19.7,30.06,West,265,0.0,0.0,89,0.00,,,0.00,WeatherDisplay:10.37,2013-02-16 10:18:00,
2013-02-16 05:23:00,22.5,19.7,30.05,West,263,1.1,0.0,89,0.00,,,0.00,WeatherDisplay:10.37,2013-02-16 10:23:00,
2013-02-16 05:28:00,22.5,19.7,30.05,West,262,0.0,0.0,89,0.00,,,0.00,WeatherDisplay:10.37,2013-02-16 10:28:00,
2013-02-16 05:33:00,22.4,19.6,30.05,West,262,0.0,0.0,89,0.00,,,0.00,WeatherDisplay:10.37,2013-02-16 10:33:00,
2013-02-16 05:38:00,22.4,19.4,30.05,West,262,0.0,0.0,88,0.00,,,0.00,WeatherDisplay:10.37,2013-02-16 10:38:00,
2013-02-16 05:43:00,22.5,19.7,30.05,West,262,0.0,0.0,89,0.00,,,0.00,WeatherDisplay:10.37,2013-02-16 10:43:00,
2013-02-16 05:48:00,22.5,19.7,30.05,West,262,0.0,0.0,89,0.00,,,0.00,WeatherDisplay:10.37,2013-02-16 10:48:00,
2013-02-16 05:53:00,22.5,19.7,30.05,West,273,0.0,0.0,89,0.00,,,0.00,WeatherDisplay:10.37,2013-02-16 10:53:00,
2013-02-16 05:58:00,22.5,19.7,30.05,NW,315,0.0,0.0,89,0.00,,,0.00,WeatherDisplay:10.37,2013-02-16 10:58:00,
2013-02-16 06:03:00,22.5,19.7,30.05,WSW,257,0.0,0.0,89,0.00,,,0.00,WeatherDisplay:10.37,2013-02-16 11:03:00,
2013-02-16 06:08:00,22.5,19.7,30.06,West,264,0.0,0.0,89,0.00,,,0.00,WeatherDisplay:10.37,2013-02-16 11:08:00,
2013-02-16 06:13:00,22.5,19.7,30.06,NNW,335,0.0,0.0,89,0.00,,,0.00,WeatherDisplay:10.37,2013-02-16 11:13:00,
2013-02-16 06:18:00,22.5,19.7,30.06,NNW,335,0.0,0.0,89,0.00,,,0.00,WeatherDisplay:10.37,2013-02-16 11:18:00,
2013-02-16 06:23:00,22.5,20.0,30.06,NNW,335,0.0,0.0,90,0.00,,,0.00,WeatherDisplay:10.37,2013-02-16 11:23:00,
2013-02-16 06:28:00,22.4,19.9,30.06,NNW,334,0.0,0.0,90,0.00,,,0.00,WeatherDisplay:10.37,2013-02-16 11:28:00,
2013-02-16 06:33:00,22.5,20.0,30.06,NNW,335,0.0,0.0,90,0.00,,,0.00,WeatherDisplay:10.37,2013-02-16 11:33:00,
2013-02-16 06:38:00,22.4,19.9,30.06,NW,323,0.0,0.0,90,0.00,,,0.00,WeatherDisplay:10.37,2013-02-16 11:38:00,
2013-02-16 06:43:00,22.4,19.9,30.06,NW,323,0.0,0.0,90,0.00,,,0.00,WeatherDisplay:10.37,2013-02-16 11:43:00,
2013-02-16 06:49:00,22.4,19.9,30.06,NW,323,0.0,0.0,90,0.00,,,0.00,WeatherDisplay:10.37,2013-02-16 11:49:00,
2013-02-16 06:54:00,22.4,19.9,30.06,NW,323,0.0,0.0,90,0.00,,,0.00,WeatherDisplay:10.37,2013-02-16 11:54:00,
2013-02-16 06:59:00,22.4,19.9,30.06,NW,323,0.0,0.0,90,0.00,,,0.00,WeatherDisplay:10.37,2013-02-16 11:59:00,
2013-02-16 07:04:00,22.4,19.9,30.06,NW,323,0.0,0.0,90,0.00,CLR,,0.00,WeatherDisplay:10.37,2013-02-16 12:04:00,
2013-02-16 07:09:00,22.3,19.8,30.07,NW,323,0.0,0.0,90,0.00,CLR,,0.00,WeatherDisplay:10.37,2013-02-16 12:09:00,
2013-02-16 07:14:00,22.3,19.8,30.07,NW,323,0.0,0.0,90,0.00,CLR,,0.00,WeatherDisplay:10.37,2013-02-16 12:14:00,
2013-02-16 07:19:00,22.2,19.7,30.07,NW,323,0.0,0.0,90,0.00,CLR,,0.00,WeatherDisplay:10.37,2013-02-16 12:19:00,
2013-02-16 07:24:00,22.1,19.6,30.07,NW,323,0.0,0.0,90,0.00,CLR,,0.00,WeatherDisplay:10.37,2013-02-16 12:24:00,
2013-02-16 07:29:00,22.1,19.6,30.07,NW,323,0.0,0.0,90,0.00,CLR,,0.00,WeatherDisplay:10.37,2013-02-16 12:29:00,
2013-02-16 07:34:00,22.1,19.9,30.07,NW,323,0.0,0.0,91,0.00,CLR,,0.00,WeatherDisplay:10.37,2013-02-16 12:34:00,
2013-02-16 07:39:00,22.1,19.9,30.07,NW,323,0.0,0.0,91,0.00,CLR,,0.00,WeatherDisplay:10.37,2013-02-16 12:39:00,
2013-02-16 07:44:00,22.2,20.0,30.07,NW,323,0.0,0.0,91,0.00,CLR,,0.00,WeatherDisplay:10.37,2013-02-16 12:44:00,
2013-02-16 07:49:00,22.3,20.1,30.07,NW,323,0.0,0.0,91,0.00,CLR,,0.00,WeatherDisplay:10.37,2013-02-16 12:49:00,
2013-02-16 07:54:00,22.4,20.2,30.07,NW,323,0.0,0.0,91,0.00,CLR,,0.00,WeatherDisplay:10.37,2013-02-16 12:54:00,
2013-02-16 07:59:00,22.5,20.3,30.07,ENE,65,0.0,0.0,91,0.00,CLR,,0.00,WeatherDisplay:10.37,2013-02-16 12:59:00,
2013-02-16 08:04:00,22.7,20.2,30.07,ENE,65,0.0,0.0,90,0.00,CLR,,0.00,WeatherDisplay:10.37,2013-02-16 13:04:00,
2013-02-16 08:09:00,22.8,20.3,30.07,ENE,65,0.0,0.0,90,0.00,CLR,,0.00,WeatherDisplay:10.37,2013-02-16 13:09:00,
2013-02-16 08:14:00,22.9,20.4,30.08,ENE,65,0.0,0.0,90,0.00,CLR,,0.00,WeatherDisplay:10.37,2013-02-16 13:14:00,
2013-02-16 08:19:00,22.9,20.4,30.07,ENE,64,0.0,0.0,90,0.00,CLR,,0.00,WeatherDisplay:10.37,2013-02-16 13:19:00,
2013-02-16 08:24:00,23.0,20.5,30.07,NE,44,0.0,0.0,90,0.00,CLR,,0.00,WeatherDisplay:10.37,2013-02-16 13:24:00,
2013-02-16 08:29:00,23.2,20.7,30.08,ENE,69,0.0,0.0,90,0.00,CLR,,0.00,WeatherDisplay:10.37,2013-02-16 13:29:00,
2013-02-16 08:34:00,23.4,20.9,30.08,ENE,70,0.0,0.0,90,0.00,CLR,,0.00,WeatherDisplay:10.37,2013-02-16 13:34:00,
2013-02-16 08:39:00,23.6,20.8,30.08,NNW,328,0.0,0.0,89,0.00,CLR,,0.00,WeatherDisplay:10.37,2013-02-16 13:39:00,
2013-02-16 08:44:00,23.8,21.0,30.07,NNW,328,0.0,0.0,89,0.00,CLR,,0.00,WeatherDisplay:10.37,2013-02-16 13:44:00,
2013-02-16 08:49:00,23.9,20.9,30.07,West,273,0.0,0.0,88,0.00,CLR,,0.00,WeatherDisplay:10.37,2013-02-16 13:49:00,
2013-02-16 08:54:00,23.9,20.6,30.07,North,9,1.1,1.1,87,0.00,CLR,,0.00,WeatherDisplay:10.37,2013-02-16 13:54:00,
2013-02-16 08:59:00,24.2,21.2,30.07,ENE,66,3.5,3.5,88,0.00,CLR,,0.00,WeatherDisplay:10.37,2013-02-16 13:59:00,
2013-02-16 09:04:00,24.4,21.1,30.07,WSW,250,1.1,0.0,87,0.00,CLR,,0.00,WeatherDisplay:10.37,2013-02-16 14:04:00,
2013-02-16 09:09:00,24.6,21.0,30.07,West,275,1.1,1.1,86,0.00,CLR,,0.00,WeatherDisplay:10.37,2013-02-16 14:09:00,
2013-02-16 09:14:00,24.6,21.0,30.07,SW,236,0.0,0.0,86,0.00,CLR,,0.00,WeatherDisplay:10.37,2013-02-16 14:14:00,
2013-02-16 09:19:00,24.6,21.0,30.07,WNW,290,0.0,0.0,86,0.00,CLR,,0.00,WeatherDisplay:10.37,2013-02-16 14:19:00,
2013-02-16 09:24:00,24.5,20.6,30.07,North,9,1.1,1.1,85,0.00,CLR,,0.00,WeatherDisplay:10.37,2013-02-16 14:24:00,
2013-02-16 09:29:00,24.3,20.4,30.07,ENE,63,0.0,0.0,85,0.00,CLR,,0.00,WeatherDisplay:10.37,2013-02-16 14:29:00,
2013-02-16 09:34:00,24.2,20.3,30.07,South,177,1.1,0.0,85,0.00,CLR,,0.00,WeatherDisplay:10.37,2013-02-16 14:34:00,
2013-02-16 09:39:00,24.0,20.1,30.07,South,184,1.1,1.1,85,0.00,CLR,,0.00,WeatherDisplay:10.37,2013-02-16 14:39:00,
2013-02-16 09:45:00,24.0,20.1,30.07,SE,131,2.3,2.3,85,0.00,CLR,,0.00,WeatherDisplay:10.37,2013-02-16 14:45:00,
2013-02-16 09:50:00,23.9,20.3,30.07,ENE,78,0.0,0.0,86,0.00,CLR,,0.00,WeatherDisplay:10.37,2013-02-16 14:50:00,
2013-02-16 09:55:00,24.0,20.4,30.07,ENE,76,1.1,0.0,86,0.00,CLR,,0.00,WeatherDisplay:10.37,2013-02-16 14:55:00,
2013-02-16 10:00:00,24.1,20.5,30.07,East,79,1.1,0.0,86,0.00,CLR,,0.00,WeatherDisplay:10.37,2013-02-16 15:00:00,
2013-02-16 10:05:00,24.4,20.5,30.07,NE,44,1.1,1.1,85,0.00,CLR,,0.00,WeatherDisplay:10.37,2013-02-16 15:05:00,
2013-02-16 10:10:00,24.6,20.7,30.07,SW,236,1.1,1.1,85,0.00,CLR,,0.00,WeatherDisplay:10.37,2013-02-16 15:10:00,
2013-02-16 10:15:00,24.8,20.7,30.06,NW,321,1.1,1.1,84,0.00,CLR,,0.00,WeatherDisplay:10.37,2013-02-16 15:15:00,
2013-02-16 10:20:00,24.9,20.8,30.07,ENE,75,1.1,1.1,84,0.00,CLR,,0.00,WeatherDisplay:10.37,2013-02-16 15:20:00,
2013-02-16 10:25:00,25.2,20.8,30.07,East,100,2.3,2.3,83,0.00,CLR,,0.00,WeatherDisplay:10.37,2013-02-16 15:25:00,
2013-02-16 10:30:00,25.4,21.0,30.07,East,83,1.1,0.0,83,0.00,CLR,,0.00,WeatherDisplay:10.37,2013-02-16 15:30:00,
2013-02-16 10:35:00,25.2,20.5,30.07,NNE,33,2.3,2.3,82,0.00,CLR,,0.00,WeatherDisplay:10.37,2013-02-16 15:35:00,
2013-02-16 10:40:00,24.8,19.8,30.07,NW,308,0.0,0.0,81,0.00,CLR,,0.00,WeatherDisplay:10.37,2013-02-16 15:40:00,
2013-02-16 10:45:00,24.8,20.1,30.06,NNE,21,3.0,3.0,82,0.00,CLR,,0.00,WeatherDisplay:10.37,2013-02-16 15:45:00,
2013-02-16 10:51:00,24.7,20.0,30.06,East,89,3.5,3.5,82,0.00,CLR,,0.00,WeatherDisplay:10.37,2013-02-16 15:51:00,
2013-02-16 10:56:00,25.4,20.7,30.06,ENE,71,1.1,1.1,82,0.00,CLR,,0.00,WeatherDisplay:10.37,2013-02-16 15:56:00,
2013-02-16 11:01:00,26.1,20.5,30.06,East,100,2.3,2.3,79,0.00,CLR,,0.00,WeatherDisplay:10.37,2013-02-16 16:01:00,
2013-02-16 11:06:00,26.6,20.4,30.06,East,79,2.3,2.3,77,0.00,CLR,,0.00,WeatherDisplay:10.37,2013-02-16 16:06:00,
2013-02-16 11:11:00,26.8,19.6,30.06,East,96,3.5,0.0,74,0.00,CLR,,0.00,WeatherDisplay:10.37,2013-02-16 16:11:00,
2013-02-16 11:16:00,27.1,20.2,30.06,NE,36,3.0,3.0,75,0.00,CLR,,0.00,WeatherDisplay:10.37,2013-02-16 16:16:00,
2013-02-16 11:21:00,27.8,20.9,30.06,ESE,117,1.0,0.0,75,0.00,CLR,,0.00,WeatherDisplay:10.37,2013-02-16 16:21:00,
2013-02-16 11:26:00,28.3,20.4,30.05,WNW,287,2.0,2.0,72,0.00,CLR,,0.00,WeatherDisplay:10.37,2013-02-16 16:26:00,
2013-02-16 11:31:00,28.5,20.6,30.05,WSW,241,1.1,1.1,72,0.00,CLR,,0.00,WeatherDisplay:10.37,2013-02-16 16:31:00,
2013-02-16 11:36:00,28.8,20.6,30.05,East,83,0.0,0.0,71,0.00,CLR,,0.00,WeatherDisplay:10.37,2013-02-16 16:36:00,
2013-02-16 11:41:00,29.5,19.9,30.05,WNW,298,2.3,2.3,67,0.00,CLR,,0.00,WeatherDisplay:10.37,2013-02-16 16:41:00,
2013-02-16 11:46:00,29.2,19.6,30.05,North,351,1.1,1.1,67,0.00,CLR,,0.00,WeatherDisplay:10.37,2013-02-16 16:46:00,
2013-02-16 11:51:00,28.9,19.0,30.05,West,277,1.1,1.1,66,0.00,CLR,,0.00,WeatherDisplay:10.37,2013-02-16 16:51:00,
2013-02-16 11:56:00,28.3,17.7,30.04,NW,323,0.0,0.0,64,0.00,CLR,,0.00,WeatherDisplay:10.37,2013-02-16 16:56:00,
2013-02-16 12:01:00,28.6,19.4,30.04,East,84,4.0,4.0,68,0.00,CLR,,0.00,WeatherDisplay:10.37,2013-02-16 17:01:00,
2013-02-16 12:06:00,28.1,19.2,30.04,NE,53,2.0,2.0,69,0.00,CLR,,0.00,WeatherDisplay:10.37,2013-02-16 17:06:00,
2013-02-16 12:11:00,27.4,18.6,30.04,ESE,108,3.5,3.5,69,0.00,CLR,,0.00,WeatherDisplay:10.37,2013-02-16 17:11:00,
2013-02-16 12:16:00,27.1,18.6,30.03,ENE,70,1.1,1.1,70,0.00,CLR,,0.00,WeatherDisplay:10.37,2013-02-16 17:16:00,
2013-02-16 12:21:00,27.6,19.1,30.03,SSW,194,1.1,1.1,70,0.00,CLR,,0.00,WeatherDisplay:10.37,2013-02-16 17:21:00,
2013-02-16 12:26:00,28.3,19.4,30.03,SSW,194,1.1,1.1,69,0.00,CLR,,0.00,WeatherDisplay:10.37,2013-02-16 17:26:00,
2013-02-16 12:31:00,28.6,19.0,30.02,SSW,194,1.1,0.0,67,0.00,CLR,,0.00,WeatherDisplay:10.37,2013-02-16 17:31:00,
2013-02-16 12:36:00,28.4,18.8,30.02,SSW,194,1.1,1.1,67,0.00,CLR,,0.00,WeatherDisplay:10.37,2013-02-16 17:36:00,
2013-02-16 12:41:00,28.3,19.1,30.02,SSW,193,2.3,2.3,68,0.00,CLR,,0.00,WeatherDisplay:10.37,2013-02-16 17:41:00,
2013-02-16 12:46:00,27.9,19.0,30.02,SSW,194,0.0,0.0,69,0.00,CLR,,0.00,WeatherDisplay:10.37,2013-02-16 17:46:00,
2013-02-16 12:51:00,28.0,18.5,30.02,SSW,193,3.5,3.5,67,0.00,CLR,,0.00,WeatherDisplay:10.37,2013-02-16 17:51:00,
2013-02-16 12:56:00,27.6,17.7,30.02,SSW,194,2.3,2.3,66,0.00,CLR,,0.00,WeatherDisplay:10.37,2013-02-16 17:56:00,
2013-02-16 13:01:00,27.5,18.0,30.01,SSW,194,2.0,2.0,67,0.00,CLR,,0.00,WeatherDisplay:10.37,2013-02-16 18:01:00,
2013-02-16 13:06:00,27.4,17.9,30.01,SSW,194,2.3,2.3,67,0.00,CLR,,0.00,WeatherDisplay:10.37,2013-02-16 18:06:00,
2013-02-16 13:11:00,27.4,17.9,30.01,SSW,194,2.3,2.3,67,0.00,CLR,,0.00,WeatherDisplay:10.37,2013-02-16 18:11:00,
2013-02-16 13:17:00,27.1,17.6,30.01,SSW,194,2.3,0.0,67,0.00,CLR,,0.00,WeatherDisplay:10.37,2013-02-16 18:17:00,
2013-02-16 13:22:00,27.2,18.4,30.01,SSW,194,2.3,2.3,69,0.00,CLR,,0.00,WeatherDisplay:10.37,2013-02-16 18:22:00,
2013-02-16 13:27:00,27.3,18.5,30.01,SSW,193,0.0,0.0,69,0.00,CLR,,0.00,WeatherDisplay:10.37,2013-02-16 18:27:00,
2013-02-16 13:32:00,27.2,18.0,30.00,SSW,194,1.1,0.0,68,0.00,CLR,,0.00,WeatherDisplay:10.37,2013-02-16 18:32:00,
2013-02-16 13:37:00,27.1,17.9,30.01,SSW,194,1.1,1.1,68,0.00,CLR,,0.00,WeatherDisplay:10.37,2013-02-16 18:37:00,
2013-02-16 13:42:00,27.0,18.2,30.01,SSW,194,2.3,2.3,69,0.00,CLR,,0.00,WeatherDisplay:10.37,2013-02-16 18:42:00,
2013-02-16 13:47:00,26.8,18.0,30.01,SSW,194,2.0,2.0,69,0.00,CLR,,0.00,WeatherDisplay:10.37,2013-02-16 18:47:00,
2013-02-16 13:52:00,27.1,19.6,30.01,SSW,193,1.1,0.0,73,0.00,CLR,,0.00,WeatherDisplay:10.37,2013-02-16 18:52:00,
2013-02-16 13:57:00,26.9,20.0,30.01,SSW,194,1.1,1.1,75,0.00,CLR,,0.00,WeatherDisplay:10.37,2013-02-16 18:57:00,
2013-02-16 14:02:00,26.6,20.4,30.01,SSW,193,0.0,0.0,77,0.00,CLR,,0.00,WeatherDisplay:10.37,2013-02-16 19:02:00,
2013-02-16 14:07:00,26.6,20.4,30.01,SSW,193,1.1,1.1,77,0.00,CLR,,0.00,WeatherDisplay:10.37,2013-02-16 19:07:00,
2013-02-16 14:12:00,26.6,20.4,30.00,SSW,194,2.3,2.3,77,0.00,CLR,,0.00,WeatherDisplay:10.37,2013-02-16 19:12:00,
2013-02-16 14:17:00,26.7,20.1,30.00,SSW,193,1.1,1.1,76,0.00,CLR,,0.00,WeatherDisplay:10.37,2013-02-16 19:17:00,
2013-02-16 14:22:00,26.7,19.8,30.00,SSW,194,2.3,2.3,75,0.00,CLR,,0.00,WeatherDisplay:10.37,2013-02-16 19:22:00,
2013-02-16 14:27:00,26.9,20.0,30.00,SSW,194,0.0,0.3,75,0.00,CLR,,0.00,WeatherDisplay:10.37,2013-02-16 19:27:00,
2013-02-16 14:32:00,27.0,19.5,30.00,SSW,194,2.0,2.0,73,0.00,CLR,,0.00,WeatherDisplay:10.37,2013-02-16 19:32:00,
2013-02-16 14:37:00,26.9,19.1,30.00,SSW,194,1.1,1.1,72,0.00,CLR,,0.00,WeatherDisplay:10.37,2013-02-16 19:37:00,
2013-02-16 14:42:00,27.3,18.8,29.99,SSW,194,3.5,3.5,70,0.00,CLR,,0.00,WeatherDisplay:10.37,2013-02-16 19:42:00,
2013-02-16 14:47:00,27.4,18.2,29.99,SSW,194,3.5,3.5,68,0.00,CLR,,0.00,WeatherDisplay:10.37,2013-02-16 19:47:00,
2013-02-16 14:52:00,27.5,18.3,29.99,SSW,194,3.5,3.5,68,0.00,CLR,,0.00,WeatherDisplay:10.37,2013-02-16 19:52:00,
2013-02-16 14:57:00,27.8,18.6,29.99,SSW,194,3.5,3.5,68,0.00,CLR,,0.00,WeatherDisplay:10.37,2013-02-16 19:57:00,
2013-02-16 15:02:00,27.6,18.1,29.99,SSW,194,2.3,0.0,67,0.00,,,0.00,WeatherDisplay:10.37,2013-02-16 20:02:00,
2013-02-16 15:07:00,27.6,18.4,29.99,SSW,194,2.3,2.3,68,0.00,,,0.00,WeatherDisplay:10.37,2013-02-16 20:07:00,
2013-02-16 15:12:00,27.2,18.0,29.99,SSW,193,3.5,3.5,68,0.00,,,0.00,WeatherDisplay:10.37,2013-02-16 20:12:00,
2013-02-16 15:17:00,26.7,17.9,29.99,SSW,193,3.5,3.5,69,0.00,,,0.00,WeatherDisplay:10.37,2013-02-16 20:17:00,
2013-02-16 15:22:00,26.9,18.4,30.00,SSW,194,3.5,3.5,70,0.00,,,0.00,WeatherDisplay:10.37,2013-02-16 20:22:00,
2013-02-16 15:27:00,26.9,18.1,30.00,SSW,193,2.0,2.0,69,0.00,,,0.00,WeatherDisplay:10.37,2013-02-16 20:27:00,
2013-02-16 15:32:00,26.7,17.9,30.00,SSW,194,3.5,3.5,69,0.00,,,0.00,WeatherDisplay:10.37,2013-02-16 20:32:00,
2013-02-16 15:37:00,26.5,18.0,30.00,SSW,193,1.1,1.1,70,0.00,,,0.00,WeatherDisplay:10.37,2013-02-16 20:37:00,
2013-02-16 15:42:00,26.5,18.4,30.00,SSW,194,2.3,2.3,71,0.00,,,0.00,WeatherDisplay:10.37,2013-02-16 20:42:00,
2013-02-16 15:47:00,26.3,17.8,30.00,SSW,194,3.5,3.5,70,0.00,,,0.00,WeatherDisplay:10.37,2013-02-16 20:47:00,
2013-02-16 15:52:00,26.3,18.2,29.99,SSW,194,3.5,3.5,71,0.00,,,0.00,WeatherDisplay:10.37,2013-02-16 20:52:00,
2013-02-16 15:57:00,26.3,17.8,29.99,SSW,194,2.3,2.3,70,0.00,,,0.00,WeatherDisplay:10.37,2013-02-16 20:57:00,
2013-02-16 16:02:00,26.2,17.7,29.99,SSW,194,3.5,3.5,70,0.00,CLR,,0.00,WeatherDisplay:10.37,2013-02-16 21:02:00,
2013-02-16 16:07:00,26.0,17.6,29.99,SSW,193,1.1,1.1,70,0.00,CLR,,0.00,WeatherDisplay:10.37,2013-02-16 21:07:00,
2013-02-16 16:12:00,25.9,17.8,29.99,SSW,193,1.1,1.1,71,0.00,CLR,,0.00,WeatherDisplay:10.37,2013-02-16 21:12:00,
2013-02-16 16:17:00,25.8,18.0,29.99,SSW,194,2.3,2.3,72,0.00,CLR,,0.00,WeatherDisplay:10.37,2013-02-16 21:17:00,
2013-02-16 16:22:00,25.7,17.6,29.99,SSW,193,1.1,1.1,71,0.00,CLR,,0.00,WeatherDisplay:10.37,2013-02-16 21:22:00,
2013-02-16 16:27:00,25.7,17.6,29.99,SSW,194,2.3,2.3,71,0.00,CLR,,0.00,WeatherDisplay:10.37,2013-02-16 21:27:00,
2013-02-16 16:32:00,25.6,17.8,29.99,SSW,194,1.1,1.1,72,0.00,CLR,,0.00,WeatherDisplay:10.37,2013-02-16 21:32:00,
2013-02-16 16:37:00,25.6,17.5,30.00,SSW,193,0.0,0.0,71,0.00,CLR,,0.00,WeatherDisplay:10.37,2013-02-16 21:37:00,
2013-02-16 16:42:00,25.4,17.3,30.00,SSW,194,0.0,0.0,71,0.00,CLR,,0.00,WeatherDisplay:10.37,2013-02-16 21:42:00,
2013-02-16 16:47:00,25.4,17.3,30.00,SSW,194,0.0,0.0,71,0.00,CLR,,0.00,WeatherDisplay:10.37,2013-02-16 21:47:00,
2013-02-16 16:52:00,25.3,17.5,30.00,SSW,194,0.0,0.0,72,0.00,CLR,,0.00,WeatherDisplay:10.37,2013-02-16 21:52:00,
2013-02-16 16:57:00,25.1,17.3,30.00,SSW,194,1.1,1.1,72,0.00,CLR,,0.00,WeatherDisplay:10.37,2013-02-16 21:57:00,
2013-02-16 17:02:00,24.9,17.5,30.00,SSW,194,1.0,1.0,73,0.00,CLR,,0.00,WeatherDisplay:10.37,2013-02-16 22:02:00,
2013-02-16 17:07:00,24.8,17.1,30.00,SSW,194,0.0,0.0,72,0.00,CLR,,0.00,WeatherDisplay:10.37,2013-02-16 22:07:00,
2013-02-16 17:12:00,24.6,16.9,30.00,SSW,194,0.0,0.0,72,0.00,CLR,,0.00,WeatherDisplay:10.37,2013-02-16 22:12:00,
2013-02-16 17:17:00,24.4,16.7,30.00,SSW,194,0.0,0.0,72,0.00,CLR,,0.00,WeatherDisplay:10.37,2013-02-16 22:17:00,
2013-02-16 17:22:00,24.2,16.8,30.00,SSW,194,0.0,0.0,73,0.00,CLR,,0.00,WeatherDisplay:10.37,2013-02-16 22:22:00,
2013-02-16 17:27:00,23.8,16.4,30.00,SSW,194,1.0,1.0,73,0.00,CLR,,0.00,WeatherDisplay:10.37,2013-02-16 22:27:00,
2013-02-16 17:32:00,23.6,16.2,30.00,SSW,194,1.0,1.0,73,0.00,CLR,,0.00,WeatherDisplay:10.37,2013-02-16 22:32:00,
2013-02-16 17:37:00,23.4,16.3,30.00,SSW,194,0.0,0.0,74,0.00,CLR,,0.00,WeatherDisplay:10.37,2013-02-16 22:37:00,
2013-02-16 17:42:00,23.1,16.0,30.00,SSW,194,1.1,1.1,74,0.00,CLR,,0.00,WeatherDisplay:10.37,2013-02-16 22:42:00,
2013-02-16 17:47:00,22.9,15.8,30.00,SSW,194,0.0,0.0,74,0.00,CLR,,0.00,WeatherDisplay:10.37,2013-02-16 22:47:00,
2013-02-16 17:52:00,22.5,15.8,30.01,SSW,194,0.0,0.0,75,0.00,CLR,,0.00,WeatherDisplay:10.37,2013-02-16 22:52:00,
2013-02-16 17:57:00,22.4,15.7,30.01,SSW,194,0.0,0.0,75,0.00,CLR,,0.00,WeatherDisplay:10.37,2013-02-16 22:57:00,
2013-02-16 18:02:00,22.3,15.3,30.02,SSW,194,0.0,0.0,74,0.00,,,0.00,WeatherDisplay:10.37,2013-02-16 23:02:00,
2013-02-16 18:07:00,21.9,15.2,30.02,SSW,194,0.0,0.0,75,0.00,,,0.00,WeatherDisplay:10.37,2013-02-16 23:07:00,
2013-02-16 18:12:00,21.5,14.8,30.01,SSW,194,0.0,0.0,75,0.00,,,0.00,WeatherDisplay:10.37,2013-02-16 23:12:00,
2013-02-16 18:17:00,21.2,14.8,30.01,SSW,194,0.0,0.0,76,0.00,,,0.00,WeatherDisplay:10.37,2013-02-16 23:17:00,
2013-02-16 18:22:00,20.9,14.5,30.02,SSW,194,0.0,0.0,76,0.00,,,0.00,WeatherDisplay:10.37,2013-02-16 23:22:00,
2013-02-16 18:27:00,20.7,14.3,30.01,SSW,194,0.0,0.0,76,0.00,,,0.00,WeatherDisplay:10.37,2013-02-16 23:27:00,
2013-02-16 18:32:00,20.5,14.4,30.01,SSW,194,0.0,0.1,77,0.00,,,0.00,WeatherDisplay:10.37,2013-02-16 23:32:00,
2013-02-16 18:37:00,20.3,14.2,30.01,SSW,194,0.0,0.0,77,0.00,,,0.00,WeatherDisplay:10.37,2013-02-16 23:37:00,
2013-02-16 18:42:00,20.4,14.3,30.01,SSW,194,0.0,0.0,77,0.00,,,0.00,WeatherDisplay:10.37,2013-02-16 23:42:00,
2013-02-16 18:47:00,20.5,14.1,30.01,SSW,194,0.0,0.0,76,0.00,,,0.00,WeatherDisplay:10.37,2013-02-16 23:47:00,
2013-02-16 18:52:00,20.5,14.1,30.01,SSW,194,0.0,0.0,76,0.00,,,0.00,WeatherDisplay:10.37,2013-02-16 23:52:00,
2013-02-16 18:57:00,20.5,14.1,30.01,SSW,194,0.0,0.0,76,0.00,,,0.00,WeatherDisplay:10.37,2013-02-16 23:57:00,
2013-02-16 19:02:00,20.4,14.0,30.02,SSW,194,0.0,0.0,76,0.00,,,0.00,WeatherDisplay:10.37,2013-02-17 00:02:00,
2013-02-16 19:07:00,20.3,13.6,30.02,SSW,193,0.0,0.0,75,0.00,,,0.00,WeatherDisplay:10.37,2013-02-17 00:07:00,
2013-02-16 19:12:00,20.1,13.7,30.01,SSW,194,0.0,0.0,76,0.00,,,0.00,WeatherDisplay:10.37,2013-02-17 00:12:00,
2013-02-16 19:18:00,20.0,13.6,30.01,SSW,194,0.0,0.0,76,0.00,,,0.00,WeatherDisplay:10.37,2013-02-17 00:18:00,
2013-02-16 19:23:00,19.9,13.6,30.01,SSW,195,0.0,0.0,76,0.00,,,0.00,WeatherDisplay:10.37,2013-02-17 00:23:00,
2013-02-16 19:28:00,19.8,13.5,30.01,SSW,195,0.0,0.0,76,0.00,,,0.00,WeatherDisplay:10.37,2013-02-17 00:28:00,
2013-02-16 19:33:00,19.6,13.3,30.01,SSW,195,0.0,0.0,76,0.00,,,0.00,WeatherDisplay:10.37,2013-02-17 00:33:00,
2013-02-16 19:38:00,19.6,13.3,30.01,WNW,290,0.0,0.0,76,0.00,,,0.00,WeatherDisplay:10.37,2013-02-17 00:38:00,
2013-02-16 19:43:00,19.7,13.1,30.01,WNW,293,0.0,0.0,75,0.00,,,0.00,WeatherDisplay:10.37,2013-02-17 00:43:00,
2013-02-16 19:48:00,19.5,13.2,30.00,WNW,293,0.0,0.0,76,0.00,,,0.00,WeatherDisplay:10.37,2013-02-17 00:48:00,
2013-02-16 19:53:00,19.3,13.0,30.00,WNW,290,0.0,0.0,76,0.00,,,0.00,WeatherDisplay:10.37,2013-02-17 00:53:00,
2013-02-16 19:58:00,19.2,12.9,30.00,WNW,288,0.0,0.0,76,0.00,,,0.00,WeatherDisplay:10.37,2013-02-17 00:58:00,
2013-02-16 20:03:00,19.4,13.1,30.00,NW,324,0.0,0.0,76,0.00,,,0.00,WeatherDisplay:10.37,2013-02-17 01:03:00,
2013-02-16 20:08:00,19.3,12.7,30.00,NW,325,0.0,0.0,75,0.00,,,0.00,WeatherDisplay:10.37,2013-02-17 01:08:00,
2013-02-16 20:13:00,19.3,12.7,30.00,NW,325,0.0,0.0,75,0.00,,,0.00,WeatherDisplay:10.37,2013-02-17 01:13:00,
2013-02-16 20:18:00,19.2,12.6,30.00,NW,324,0.0,0.0,75,0.00,,,0.00,WeatherDisplay:10.37,2013-02-17 01:18:00,
2013-02-16 20:23:00,18.8,12.5,30.00,NW,325,0.0,0.0,76,0.00,,,0.00,WeatherDisplay:10.37,2013-02-17 01:23:00,
2013-02-16 20:28:00,18.7,12.4,30.00,NW,324,0.0,0.0,76,0.00,,,0.00,WeatherDisplay:10.37,2013-02-17 01:28:00,
2013-02-16 20:33:00,18.6,12.3,30.00,NW,325,0.0,0.0,76,0.00,,,0.00,WeatherDisplay:10.37,2013-02-17 01:33:00,
2013-02-16 20:38:00,18.8,12.5,30.00,NW,324,0.0,0.0,76,0.00,,,0.00,WeatherDisplay:10.37,2013-02-17 01:38:00,
2013-02-16 20:43:00,18.6,12.3,29.99,NW,325,0.0,0.0,76,0.00,,,0.00,WeatherDisplay:10.37,2013-02-17 01:43:00,
2013-02-16 20:48:00,18.6,12.6,29.99,NW,324,0.0,0.0,77,0.00,,,0.00,WeatherDisplay:10.37,2013-02-17 01:48:00,
2013-02-16 20:53:00,18.7,12.7,29.99,NW,324,0.0,0.0,77,0.00,,,0.00,WeatherDisplay:10.37,2013-02-17 01:53:00,
2013-02-16 20:58:00,18.9,12.9,29.99,NW,325,0.0,0.0,77,0.00,,,0.00,WeatherDisplay:10.37,2013-02-17 01:58:00,
2013-02-16 21:03:00,19.0,13.0,29.99,NW,325,0.0,0.0,77,0.00,,,0.00,WeatherDisplay:10.37,2013-02-17 02:03:00,
2013-02-16 21:08:00,18.9,13.2,29.99,NW,324,0.0,0.0,78,0.00,,,0.00,WeatherDisplay:10.37,2013-02-17 02:08:00,
2013-02-16 21:13:00,18.9,13.2,29.99,NW,325,0.0,0.0,78,0.00,,,0.00,WeatherDisplay:10.37,2013-02-17 02:13:00,
2013-02-16 21:18:00,18.9,13.5,29.99,NW,325,0.0,0.0,79,0.00,,,0.00,WeatherDisplay:10.37,2013-02-17 02:18:00,
2013-02-16 21:23:00,19.0,13.3,29.99,NW,325,0.0,0.0,78,0.00,,,0.00,WeatherDisplay:10.37,2013-02-17 02:23:00,
2013-02-16 21:28:00,19.2,13.8,29.99,NW,324,0.0,0.0,79,0.00,,,0.00,WeatherDisplay:10.37,2013-02-17 02:28:00,
2013-02-16 21:33:00,19.4,13.7,29.98,NW,321,0.0,0.0,78,0.00,,,0.00,WeatherDisplay:10.37,2013-02-17 02:33:00,
2013-02-16 21:38:00,19.6,13.9,29.98,NW,308,0.0,0.0,78,0.00,,,0.00,WeatherDisplay:10.37,2013-02-17 02:38:00,
2013-02-16 21:43:00,19.7,14.2,29.98,NW,307,0.0,0.0,79,0.00,,,0.00,WeatherDisplay:10.37,2013-02-17 02:43:00,
2013-02-16 21:48:00,19.5,14.0,29.98,NW,308,0.0,0.0,79,0.00,,,0.00,WeatherDisplay:10.37,2013-02-17 02:48:00,
2013-02-16 21:53:00,19.4,13.9,29.98,NW,308,0.0,0.0,79,0.00,,,0.00,WeatherDisplay:10.37,2013-02-17 02:53:00,
2013-02-16 21:58:00,19.3,13.6,29.98,SE,127,0.0,0.0,78,0.00,,,0.00,WeatherDisplay:10.37,2013-02-17 02:58:00,
2013-02-16 22:03:00,19.5,13.5,29.97,ESE,103,0.0,0.0,77,0.00,,,0.00,WeatherDisplay:10.37,2013-02-17 03:03:00,
2013-02-16 22:08:00,19.7,13.7,29.97,SSE,149,1.1,1.1,77,0.00,,,0.00,WeatherDisplay:10.37,2013-02-17 03:08:00,
2013-02-16 22:13:00,19.8,13.5,29.97,SE,144,0.0,0.0,76,0.00,,,0.00,WeatherDisplay:10.37,2013-02-17 03:13:00,
2013-02-16 22:18:00,19.7,13.4,29.97,SE,125,0.0,0.0,76,0.00,,,0.00,WeatherDisplay:10.37,2013-02-17 03:18:00,
2013-02-16 22:23:00,19.7,13.4,29.98,SE,126,0.0,0.0,76,0.00,,,0.00,WeatherDisplay:10.37,2013-02-17 03:23:00,
2013-02-16 22:28:00,19.9,13.3,29.98,SSW,203,0.0,0.0,75,0.00,,,0.00,WeatherDisplay:10.37,2013-02-17 03:28:00,
2013-02-16 22:33:00,20.1,13.1,29.97,SE,142,1.1,1.1,74,0.00,,,0.00,WeatherDisplay:10.37,2013-02-17 03:33:00,
2013-02-16 22:38:00,20.2,12.9,29.97,ESE,105,1.1,0.0,73,0.00,,,0.00,WeatherDisplay:10.37,2013-02-17 03:38:00,
2013-02-16 22:43:00,20.3,13.3,29.97,ESE,105,1.1,0.0,74,0.00,,,0.00,WeatherDisplay:10.37,2013-02-17 03:43:00,
2013-02-16 22:48:00,20.3,13.3,29.97,ESE,105,0.0,0.0,74,0.00,,,0.00,WeatherDisplay:10.37,2013-02-17 03:48:00,
2013-02-16 22:53:00,20.3,13.0,29.97,ESE,106,1.1,0.0,73,0.00,,,0.00,WeatherDisplay:10.37,2013-02-17 03:53:00,
2013-02-16 22:59:00,20.4,12.8,29.96,SE,132,1.1,1.1,72,0.00,,,0.00,WeatherDisplay:10.37,2013-02-17 03:59:00,
2013-02-16 23:04:00,20.5,12.9,29.96,ESE,117,0.0,0.0,72,0.00,,,0.00,WeatherDisplay:10.37,2013-02-17 04:04:00,
2013-02-16 23:09:00,20.6,13.0,29.96,East,101,0.0,0.0,72,0.00,,,0.00,WeatherDisplay:10.37,2013-02-17 04:09:00,
2013-02-16 23:14:00,20.5,13.2,29.96,ESE,102,0.0,0.0,73,0.00,,,0.00,WeatherDisplay:10.37,2013-02-17 04:14:00,
2013-02-16 23:19:00,20.4,13.1,29.96,East,101,0.0,0.0,73,0.00,,,0.00,WeatherDisplay:10.37,2013-02-17 04:19:00,
2013-02-16 23:24:00,20.4,13.1,29.96,East,101,0.0,0.0,73,0.00,,,0.00,WeatherDisplay:10.37,2013-02-17 04:24:00,
2013-02-16 23:29:00,20.4,13.1,29.95,East,101,0.0,0.0,73,0.00,,,0.00,WeatherDisplay:10.37,2013-02-17 04:29:00,
2013-02-16 23:34:00,20.4,13.4,29.95,ESE,102,0.0,0.0,74,0.00,,,0.00,WeatherDisplay:10.37,2013-02-17 04:34:00,
2013-02-16 23:39:00,20.3,13.3,29.95,ESE,102,0.0,0.0,74,0.00,,,0.00,WeatherDisplay:10.37,2013-02-17 04:39:00,
2013-02-16 23:44:00,20.3,13.0,29.95,South,173,0.0,0.2,73,0.00,,,0.00,WeatherDisplay:10.37,2013-02-17 04:44:00,
2013-02-16 23:49:00,20.4,13.1,29.95,South,173,0.0,0.0,73,0.00,,,0.00,WeatherDisplay:10.37,2013-02-17 04:49:00,
2013-02-16 23:54:00,20.4,12.8,29.95,South,177,0.0,0.0,72,0.00,,,0.00,WeatherDisplay:10.37,2013-02-17 04:54:00,
2013-02-16 23:59:00,20.5,12.9,29.94,South,177,0.0,0.0,72,0.00,,,0.00,WeatherDisplay:10.37,2013-02-17 04:59:00,